createdAt,value
2023-04-01T00:02:19.710Z,13.20
2023-04-01T00:05:06.673Z,11.82
2023-04-01T00:07:52.908Z,12.88
2023-04-01T00:10:38.440Z,10.48
2023-04-01T00:13:26.548Z,10.90
2023-04-01T00:16:21.203Z,11.75
2023-04-01T00:19:08.052Z,9.85
2023-04-01T00:21:53.499Z,11.45
2023-04-01T00:24:39.474Z,9.65
2023-04-01T00:27:25.016Z,9.40
2023-04-01T00:30:11.592Z,8.32
2023-04-01T00:32:57.455Z,9.75
2023-04-01T00:35:43.024Z,10.13
2023-04-01T00:38:28.307Z,10.63
2023-04-01T00:41:16.594Z,10.55
2023-04-01T00:44:20.000Z,10.13
2023-04-01T00:47:06.236Z,10.10
2023-04-01T00:49:53.571Z,10.10
2023-04-01T00:52:39.168Z,10.95
2023-04-01T00:55:25.373Z,10.23
2023-04-01T00:58:16.960Z,10.57
2023-04-01T01:01:02.649Z,10.20
2023-04-01T01:03:48.415Z,10.15
2023-04-01T01:06:41.109Z,10.48
2023-04-01T01:09:41.169Z,9.65
2023-04-01T01:12:30.695Z,9.45
2023-04-01T01:15:40.934Z,10.18
2023-04-01T01:19:06.273Z,9.77
2023-04-01T01:22:29.672Z,9.60
2023-04-01T01:25:21.603Z,10.18
2023-04-01T01:28:15.169Z,9.77
2023-04-01T01:31:18.918Z,9.60
2023-04-01T01:37:14.546Z,9.02
2023-04-01T01:40:06.960Z,9.10
2023-04-01T01:42:57.074Z,9.77
2023-04-01T01:45:48.702Z,9.60
2023-04-01T01:48:35.389Z,10.35
2023-04-01T01:51:22.873Z,8.32
2023-04-01T01:54:12.496Z,8.13
2023-04-01T01:57:07.253Z,6.20
2023-04-01T01:59:57.823Z,5.10
2023-04-01T02:02:47.068Z,4.97
2023-04-01T02:05:34.234Z,4.95
2023-04-01T02:08:57.233Z,4.57
2023-04-01T02:12:01.792Z,3.67
2023-04-01T02:15:07.540Z,3.75
2023-04-01T02:17:53.258Z,4.50
2023-04-01T02:20:40.960Z,4.63
2023-04-01T02:23:27.699Z,4.20
2023-04-01T02:26:15.396Z,3.83
2023-04-01T02:29:03.711Z,5.28
2023-04-01T02:31:50.570Z,3.92
2023-04-01T02:34:36.756Z,4.70
2023-04-01T02:37:22.484Z,4.82
2023-04-01T02:40:09.123Z,4.93
2023-04-01T02:42:54.979Z,4.78
2023-04-01T02:45:40.727Z,4.95
2023-04-01T02:48:26.141Z,4.80
2023-04-01T02:51:11.595Z,4.70
2023-04-01T02:53:57.344Z,4.18
2023-04-01T02:56:42.945Z,4.50
2023-04-01T02:59:28.455Z,3.80
2023-04-01T03:02:14.380Z,4.95
2023-04-01T03:04:59.957Z,3.60
2023-04-01T03:07:45.994Z,3.72
2023-04-01T03:10:31.693Z,4.78
2023-04-01T03:13:17.211Z,3.42
2023-04-01T03:16:02.986Z,3.70
2023-04-01T03:18:50.532Z,3.25
2023-04-01T03:21:36.399Z,3.13
2023-04-01T03:24:22.285Z,2.40
2023-04-01T03:27:07.835Z,3.00
2023-04-01T03:29:53.348Z,2.53
2023-04-01T03:32:39.039Z,3.03
2023-04-01T03:35:24.990Z,2.40
2023-04-01T03:38:10.426Z,2.53
2023-04-01T03:40:55.870Z,2.65
2023-04-01T03:43:41.499Z,2.45
2023-04-01T03:46:26.851Z,2.40
2023-04-01T03:49:12.892Z,2.70
2023-04-01T03:51:58.699Z,2.88
2023-04-01T03:54:44.437Z,3.45
2023-04-01T03:57:32.496Z,3.70
2023-04-01T04:00:18.298Z,2.80
2023-04-01T04:03:04.636Z,2.80
2023-04-01T04:05:51.091Z,2.85
2023-04-01T04:08:36.846Z,2.55
2023-04-01T04:11:23.377Z,2.63
2023-04-01T04:14:08.882Z,2.30
2023-04-01T04:16:54.413Z,3.03
2023-04-01T04:19:39.951Z,2.40
2023-04-01T04:22:25.621Z,2.78
2023-04-01T04:25:11.090Z,2.83
2023-04-01T04:27:56.642Z,2.47
2023-04-01T04:30:42.478Z,2.47
2023-04-01T04:33:28.034Z,2.10
2023-04-01T04:36:13.795Z,2.50
2023-04-01T04:39:02.973Z,1.80
2023-04-01T04:41:49.071Z,2.08
2023-04-01T04:44:34.787Z,1.67
2023-04-01T04:47:20.489Z,2.20
2023-04-01T04:50:06.873Z,1.80
2023-04-01T04:52:52.526Z,2.10
2023-04-01T04:55:38.202Z,1.65
2023-04-01T04:58:23.779Z,2.17
2023-04-01T05:01:12.403Z,2.35
2023-04-01T05:03:58.053Z,2.30
2023-04-01T05:06:46.115Z,2.15
2023-04-01T05:09:32.244Z,2.20
2023-04-01T05:12:17.901Z,2.45
2023-04-01T05:15:05.939Z,2.22
2023-04-01T05:17:51.773Z,2.33
2023-04-01T05:20:37.798Z,2.38
2023-04-01T05:23:23.884Z,2.22
2023-04-01T05:26:11.910Z,2.38
2023-04-01T05:28:57.361Z,2.00
2023-04-01T05:31:42.806Z,2.08
2023-04-01T05:34:28.648Z,2.60
2023-04-01T05:37:14.046Z,1.98
2023-04-01T05:39:59.984Z,2.08
2023-04-01T05:42:45.888Z,2.13
2023-04-01T05:45:31.821Z,2.28
2023-04-01T05:48:17.481Z,2.75
2023-04-01T05:51:04.938Z,2.25
2023-04-01T05:53:50.873Z,2.33
2023-04-01T05:56:36.506Z,2.25
2023-04-01T05:59:22.101Z,2.53
2023-04-01T06:02:09.292Z,2.72
2023-04-01T06:05:13.472Z,3.08
2023-04-01T06:08:10.785Z,2.92
2023-04-01T06:11:26.387Z,3.20
2023-04-01T06:14:28.427Z,3.30
2023-04-01T06:17:26.008Z,3.33
2023-04-01T06:20:17.872Z,3.30
2023-04-01T06:23:28.511Z,3.17
2023-04-01T06:26:14.029Z,3.28
2023-04-01T06:29:18.898Z,3.22
2023-04-01T06:32:42.950Z,3.40
2023-04-01T06:35:38.906Z,3.45
2023-04-01T06:38:56.820Z,3.80
2023-04-01T06:42:07.175Z,2.90
2023-04-01T06:44:58.658Z,3.10
2023-04-01T06:47:55.046Z,3.60
2023-04-01T06:51:11.114Z,3.60
2023-04-01T06:54:13.654Z,3.90
2023-04-01T06:57:20.591Z,3.83
2023-04-01T07:00:33.828Z,4.10
2023-04-01T07:03:42.622Z,3.83
2023-04-01T07:06:37.363Z,4.05
2023-04-01T07:09:37.908Z,3.83
2023-04-01T07:12:36.745Z,3.70
2023-04-01T07:15:29.578Z,3.80
2023-04-01T07:18:32.226Z,4.32
2023-04-01T07:21:36.705Z,4.40
2023-04-01T07:24:38.767Z,4.53
2023-04-01T07:27:24.734Z,4.13
2023-04-01T07:30:19.630Z,3.78
2023-04-01T07:33:20.784Z,3.78
2023-04-01T07:36:27.786Z,4.28
2023-04-01T07:39:45.343Z,4.07
2023-04-01T07:43:01.366Z,4.70
2023-04-01T07:46:01.812Z,4.25
2023-04-01T07:49:13.558Z,4.88
2023-04-01T07:52:21.406Z,4.18
2023-04-01T07:55:27.244Z,4.20
2023-04-01T07:58:39.990Z,3.80
2023-04-01T08:01:52.287Z,3.50
2023-04-01T08:04:46.601Z,3.30
2023-04-01T08:08:07.302Z,3.65
2023-04-01T08:10:59.781Z,4.03
2023-04-01T08:14:11.196Z,4.93
2023-04-01T08:17:18.699Z,4.63
2023-04-01T08:20:16.516Z,4.80
2023-04-01T08:23:11.064Z,5.20
2023-04-01T08:25:59.347Z,5.00
2023-04-01T08:28:55.395Z,5.05
2023-04-01T08:32:04.883Z,5.15
2023-04-01T08:35:07.836Z,5.70
2023-04-01T08:37:56.299Z,6.28
2023-04-01T08:41:01.500Z,5.68
2023-04-01T08:44:21.129Z,6.22
2023-04-01T08:47:40.481Z,6.20
2023-04-01T08:50:38.428Z,6.25
2023-04-01T08:53:48.523Z,6.00
2023-04-01T08:57:08.627Z,5.20
2023-04-01T09:00:32.848Z,7.35
2023-04-01T09:03:55.997Z,5.82
2023-04-01T09:09:39.873Z,4.78
2023-04-01T09:12:46.834Z,5.22
2023-04-01T09:16:17.371Z,5.15
2023-04-01T09:19:29.753Z,4.80
2023-04-01T09:22:53.859Z,4.90
2023-04-01T09:26:00.818Z,4.38
2023-04-01T09:28:46.601Z,4.40
2023-04-01T09:32:01.996Z,4.13
2023-04-01T09:35:12.331Z,4.45
2023-04-01T09:38:10.031Z,4.45
2023-04-01T09:41:12.984Z,4.28
2023-04-01T09:44:04.289Z,4.18
2023-04-01T09:47:09.037Z,4.20
2023-04-01T09:50:08.047Z,4.55
2023-04-01T09:53:12.363Z,3.92
2023-04-01T09:56:24.880Z,3.88
2023-04-01T09:59:42.348Z,3.80
2023-04-01T10:06:19.196Z,4.20
2023-04-01T10:09:31.261Z,4.03
2023-04-01T10:12:37.520Z,4.80
2023-04-01T10:15:38.410Z,5.45
2023-04-01T10:18:43.940Z,5.38
2023-04-01T10:21:35.788Z,5.03
2023-04-01T10:24:27.072Z,3.90
2023-04-01T10:27:31.730Z,2.88
2023-04-01T10:30:42.036Z,3.08
2023-04-01T10:34:16.350Z,2.35
2023-04-01T10:40:49.995Z,2.67
2023-04-01T10:44:33.160Z,3.03
2023-04-01T10:47:28.154Z,3.28
2023-04-01T10:50:14.143Z,4.10
2023-04-01T10:53:27.974Z,3.55
2023-04-01T10:56:36.395Z,3.88
2023-04-01T10:59:58.649Z,3.78
2023-04-01T11:03:12.361Z,3.30
2023-04-01T11:06:17.194Z,4.35
2023-04-01T11:09:23.378Z,3.53
2023-04-01T11:12:43.382Z,4.38
2023-04-01T11:16:06.293Z,3.40
2023-04-01T11:19:19.304Z,3.92
2023-04-01T11:22:31.766Z,4.53
2023-04-01T11:25:23.141Z,4.43
2023-04-01T11:28:45.601Z,4.80
2023-04-01T11:31:36.768Z,4.72
2023-04-01T11:34:46.528Z,5.03
2023-04-01T11:37:49.988Z,5.13
2023-04-01T11:41:10.158Z,5.03
2023-04-01T11:44:18.125Z,5.25
2023-04-01T11:47:25.686Z,5.03
2023-04-01T11:50:30.117Z,4.97
2023-04-01T11:53:42.725Z,4.57
2023-04-01T11:56:28.514Z,5.40
2023-04-01T11:59:33.120Z,4.85
2023-04-01T12:02:51.382Z,5.40
2023-04-01T12:05:44.720Z,4.43
2023-04-01T12:08:44.376Z,4.13
2023-04-01T12:11:45.011Z,4.03
2023-04-01T12:15:04.214Z,4.38
2023-04-01T12:18:10.563Z,4.00
2023-04-01T12:21:22.802Z,3.80
2023-04-01T12:24:47.929Z,3.53
2023-04-01T12:27:42.498Z,4.30
2023-04-01T12:30:48.018Z,2.90
2023-04-01T12:33:58.143Z,3.78
2023-04-01T12:36:51.286Z,3.63
2023-04-01T12:39:46.557Z,3.28
2023-04-01T12:42:34.673Z,3.65
2023-04-01T12:45:56.793Z,3.13
2023-04-01T12:49:01.077Z,2.38
2023-04-01T12:52:13.133Z,2.85
2023-04-01T12:55:17.154Z,2.35
2023-04-01T12:58:39.284Z,3.17
2023-04-01T13:01:48.173Z,4.82
2023-04-01T13:04:52.695Z,3.30
2023-04-01T13:08:10.557Z,2.75
2023-04-01T13:11:19.469Z,2.47
2023-04-01T13:14:33.332Z,2.83
2023-04-01T13:17:27.383Z,2.40
2023-04-01T13:20:34.507Z,2.38
2023-04-01T13:23:34.136Z,2.30
2023-04-01T13:26:48.682Z,1.90
2023-04-01T13:29:39.093Z,2.40
2023-04-01T13:32:43.634Z,2.85
2023-04-01T13:35:38.581Z,2.95
2023-04-01T13:38:33.044Z,3.08
2023-04-01T13:41:43.254Z,2.45
2023-04-01T13:45:06.503Z,2.47
2023-04-01T13:48:07.245Z,2.60
2023-04-01T13:51:18.033Z,2.58
2023-04-01T13:54:24.426Z,2.38
2023-04-01T13:57:44.310Z,2.53
2023-04-01T14:00:45.552Z,2.47
2023-04-01T14:03:56.204Z,2.25
2023-04-01T14:07:04.325Z,1.92
2023-04-01T14:09:59.501Z,1.52
2023-04-01T14:13:06.687Z,1.83
2023-04-01T14:15:52.260Z,1.90
2023-04-01T14:19:15.699Z,1.08
2023-04-01T14:22:35.285Z,1.67
2023-04-01T14:25:45.517Z,1.48
2023-04-01T14:28:55.699Z,1.70
2023-04-01T14:32:09.233Z,1.95
2023-04-01T14:35:21.878Z,1.98
2023-04-01T14:38:31.906Z,1.65
2023-04-01T14:41:17.574Z,1.98
2023-04-01T14:44:18.828Z,2.05
2023-04-01T14:47:10.278Z,3.45
2023-04-01T14:50:18.783Z,2.13
2023-04-01T14:53:31.118Z,2.45
2023-04-01T14:56:39.356Z,2.05
2023-04-01T14:59:24.804Z,2.97
2023-04-01T15:02:31.913Z,2.92
2023-04-01T15:05:26.596Z,3.25
2023-04-01T15:08:34.135Z,3.20
2023-04-01T15:11:33.307Z,3.15
2023-04-01T15:14:26.815Z,3.28
2023-04-01T15:17:34.386Z,2.67
2023-04-01T15:20:34.413Z,3.55
2023-04-01T15:23:25.984Z,3.90
2023-04-01T15:26:41.019Z,3.67
2023-04-01T15:30:02.646Z,3.70
2023-04-01T15:33:16.550Z,3.10
2023-04-01T15:39:09.310Z,3.58
2023-04-01T15:42:01.024Z,3.33
2023-04-01T15:45:04.651Z,3.53
2023-04-01T15:48:03.439Z,4.00
2023-04-01T15:51:23.246Z,3.47
2023-04-01T15:54:30.077Z,3.60
2023-04-01T15:57:15.890Z,4.22
2023-04-01T16:00:12.765Z,4.45
2023-04-01T16:03:17.212Z,4.22
2023-04-01T16:06:21.189Z,4.88
2023-04-01T16:09:21.924Z,4.00
2023-04-01T16:12:39.429Z,4.18
2023-04-01T16:16:02.042Z,3.63
2023-04-01T16:19:14.876Z,3.95
2023-04-01T16:22:15.778Z,3.92
2023-04-01T16:25:16.181Z,4.80
2023-04-01T16:28:13.360Z,5.03
2023-04-01T16:31:04.346Z,4.97
2023-04-01T16:33:59.823Z,4.75
2023-04-01T16:36:45.820Z,4.50
2023-04-01T16:39:47.561Z,4.43
2023-04-01T16:42:47.709Z,4.90
2023-04-01T16:45:56.688Z,4.20
2023-04-01T16:49:13.818Z,3.65
2023-04-01T16:52:17.322Z,3.95
2023-04-01T16:55:16.292Z,3.83
2023-04-01T16:58:02.679Z,4.75
2023-04-01T17:01:02.374Z,4.50
2023-04-01T17:03:52.152Z,4.72
2023-04-01T17:06:54.798Z,4.30
2023-04-01T17:09:48.543Z,3.97
2023-04-01T17:12:49.823Z,5.18
2023-04-01T17:16:06.281Z,4.65
2023-04-01T17:19:00.727Z,3.30
2023-04-01T17:22:17.011Z,3.55
2023-04-01T17:25:06.403Z,4.40
2023-04-01T17:28:01.486Z,4.20
2023-04-01T17:30:56.289Z,3.83
2023-04-01T17:34:05.758Z,3.65
2023-04-01T17:37:30.159Z,3.10
2023-04-01T17:40:30.543Z,3.20
2023-04-01T17:43:40.610Z,3.25
2023-04-01T17:46:35.848Z,2.95
2023-04-01T17:49:35.549Z,3.35
2023-04-01T17:52:26.253Z,3.13
2023-04-01T17:55:32.410Z,3.10
2023-04-01T17:58:30.036Z,3.15
2023-04-01T18:01:43.695Z,3.92
2023-04-01T18:04:52.191Z,3.42
2023-04-01T18:08:07.602Z,3.22
2023-04-01T18:11:06.819Z,3.70
2023-04-01T18:14:14.472Z,3.75
2023-04-01T18:17:12.392Z,3.47
2023-04-01T18:20:12.466Z,3.83
2023-04-01T18:23:30.537Z,3.33
2023-04-01T18:26:24.274Z,3.38
2023-04-01T18:29:23.260Z,3.20
2023-04-01T18:32:17.275Z,3.47
2023-04-01T18:35:25.385Z,3.38
2023-04-01T18:38:18.325Z,2.85
2023-04-01T18:44:35.089Z,3.47
2023-04-01T18:47:36.735Z,3.45
2023-04-01T18:50:35.297Z,3.03
2023-04-01T18:53:34.892Z,2.42
2023-04-01T18:56:33.330Z,3.50
2023-04-01T18:59:51.638Z,3.00
2023-04-01T19:02:51.976Z,3.13
2023-04-01T19:05:42.311Z,3.10
2023-04-01T19:08:37.066Z,3.38
2023-04-01T19:11:42.433Z,3.30
2023-04-01T19:15:29.859Z,3.30
2023-04-01T19:18:23.797Z,3.10
2023-04-01T19:21:30.107Z,3.58
2023-04-01T19:24:27.846Z,3.03
2023-04-01T19:27:33.253Z,2.97
2023-04-01T19:30:31.018Z,2.88
2023-04-01T19:34:00.207Z,3.15
2023-04-01T19:36:50.372Z,2.70
2023-04-01T19:39:48.052Z,2.88
2023-04-01T19:42:41.482Z,2.88
2023-04-01T19:45:42.479Z,3.00
2023-04-01T19:48:52.532Z,3.00
2023-04-01T19:51:52.579Z,2.30
2023-04-01T19:55:08.852Z,2.85
2023-04-01T19:58:10.010Z,2.33
2023-04-01T20:01:01.087Z,2.28
2023-04-01T20:03:52.634Z,2.60
2023-04-01T20:06:41.453Z,3.03
2023-04-01T20:09:38.435Z,3.50
2023-04-01T20:12:35.551Z,2.85
2023-04-01T20:15:44.402Z,2.67
2023-04-01T20:19:00.160Z,2.38
2023-04-01T20:21:48.875Z,2.50
2023-04-01T20:24:52.210Z,2.28
2023-04-01T20:27:45.366Z,2.83
2023-04-01T20:30:56.598Z,2.20
2023-04-01T20:34:21.229Z,2.50
2023-04-01T20:37:16.210Z,3.00
2023-04-01T20:40:41.330Z,3.05
2023-04-01T20:43:48.779Z,2.10
2023-04-01T20:47:13.110Z,2.38
2023-04-01T20:50:29.166Z,2.28
2023-04-01T20:53:24.990Z,1.85
2023-04-01T20:56:31.943Z,1.75
2023-04-01T20:59:41.117Z,1.75
2023-04-01T21:02:39.043Z,2.17
2023-04-01T21:05:24.978Z,1.95
2023-04-01T21:08:20.671Z,2.10
2023-04-01T21:11:29.080Z,1.58
2023-04-01T21:14:48.511Z,2.28
2023-04-01T21:18:04.907Z,1.75
2023-04-01T21:21:21.765Z,1.70
2023-04-01T21:24:13.511Z,1.85
2023-04-01T21:27:33.310Z,1.67
2023-04-01T21:30:24.832Z,2.22
2023-04-01T21:33:34.955Z,1.60
2023-04-01T21:36:43.988Z,1.90
2023-04-01T21:39:59.234Z,1.73
2023-04-01T21:43:22.290Z,1.90
2023-04-01T21:46:51.846Z,2.13
2023-04-01T21:50:11.935Z,1.70
2023-04-01T21:53:06.429Z,1.17
2023-04-01T21:56:10.896Z,1.20
2023-04-01T21:59:32.681Z,1.30
2023-04-01T22:02:36.073Z,1.23
2023-04-01T22:05:28.957Z,1.77
2023-04-01T22:08:52.766Z,1.42
2023-04-01T22:11:54.502Z,1.52
2023-04-01T22:14:41.480Z,1.67
2023-04-01T22:17:38.708Z,1.80
2023-04-01T22:21:06.188Z,1.48
2023-04-01T22:24:07.559Z,1.75
2023-04-01T22:27:24.693Z,1.65
2023-04-01T22:30:16.997Z,1.50
2023-04-01T22:33:30.010Z,1.75
2023-04-01T22:36:46.858Z,1.58
2023-04-01T22:39:35.732Z,1.65
2023-04-01T22:42:30.996Z,1.45
2023-04-01T22:45:50.466Z,1.30
2023-04-01T22:48:58.885Z,1.30
2023-04-01T22:52:03.308Z,1.58
2023-04-01T22:54:55.560Z,1.50
2023-04-01T22:58:13.861Z,1.05
2023-04-01T23:01:24.255Z,1.60
2023-04-01T23:04:13.496Z,1.30
2023-04-01T23:07:08.520Z,0.93
2023-04-01T23:09:56.549Z,1.25
2023-04-01T23:12:43.106Z,1.13
2023-04-01T23:15:30.511Z,1.20
2023-04-01T23:18:18.983Z,1.10
2023-04-01T23:21:35.557Z,1.20
2023-04-01T23:24:31.874Z,1.52
2023-04-01T23:27:31.708Z,1.45
2023-04-01T23:30:41.216Z,1.70
2023-04-01T23:33:32.407Z,1.60
2023-04-01T23:36:18.267Z,1.40
2023-04-01T23:39:13.563Z,1.50
2023-04-01T23:42:20.898Z,1.77
2023-04-01T23:45:15.076Z,1.45
2023-04-01T23:48:01.524Z,1.67
2023-04-01T23:50:50.760Z,1.88
2023-04-01T23:53:36.280Z,1.77
2023-04-01T23:56:22.005Z,1.80
2023-04-01T23:59:18.255Z,1.90
